createdAt,value
2023-05-13T00:01:54.227Z,100852.30
2023-05-13T00:04:07.692Z,100852.27
2023-05-13T00:06:20.475Z,100849.34
2023-05-13T00:08:33.189Z,100847.42
2023-05-13T00:10:45.751Z,100842.19
2023-05-13T00:12:58.306Z,100841.52
2023-05-13T00:15:11.235Z,100842.90
2023-05-13T00:17:23.856Z,100838.90
2023-05-13T00:19:36.599Z,100836.22
2023-05-13T00:21:49.175Z,100835.00
2023-05-13T00:24:01.754Z,100836.01
2023-05-13T00:26:14.362Z,100834.90
2023-05-13T00:28:26.967Z,100833.29
2023-05-13T00:30:42.044Z,100828.71
2023-05-13T00:32:54.599Z,100832.26
2023-05-13T00:35:07.516Z,100833.90
2023-05-13T00:37:20.065Z,100831.84
2023-05-13T00:39:32.626Z,100832.88
2023-05-13T00:41:45.315Z,100831.16
2023-05-13T00:43:57.992Z,100829.77
2023-05-13T00:46:10.708Z,100829.66
2023-05-13T00:48:23.826Z,100831.13
2023-05-13T00:50:36.497Z,100834.44
2023-05-13T00:52:51.032Z,100834.81
2023-05-13T00:55:04.380Z,100836.92
2023-05-13T00:57:16.969Z,100834.69
2023-05-13T00:59:30.724Z,100835.39
2023-05-13T01:02:04.594Z,100838.14
2023-05-13T01:04:37.682Z,100840.96
2023-05-13T01:06:55.748Z,100846.66
2023-05-13T01:09:50.324Z,100854.70
2023-05-13T01:12:08.749Z,100864.08
2023-05-13T01:14:29.269Z,100871.66
2023-05-13T01:17:14.860Z,100874.42
2023-05-13T01:19:44.564Z,100873.36
2023-05-13T01:21:57.112Z,100875.83
2023-05-13T01:24:09.717Z,100871.81
2023-05-13T01:26:24.205Z,100870.85
2023-05-13T01:28:36.892Z,100869.38
2023-05-13T01:30:49.645Z,100871.02
2023-05-13T01:33:03.144Z,100870.57
2023-05-13T01:35:16.688Z,100873.05
2023-05-13T01:37:30.210Z,100870.83
2023-05-13T01:39:42.826Z,100873.63
2023-05-13T01:41:55.368Z,100869.16
2023-05-13T01:44:08.241Z,100865.85
2023-05-13T01:46:20.963Z,100870.54
2023-05-13T01:48:33.556Z,100871.52
2023-05-13T01:50:46.457Z,100875.98
2023-05-13T01:52:59.097Z,100877.29
2023-05-13T01:55:12.371Z,100879.45
2023-05-13T01:57:25.164Z,100884.18
2023-05-13T01:59:37.763Z,100882.05
2023-05-13T02:01:50.458Z,100878.55
2023-05-13T02:04:03.781Z,100873.17
2023-05-13T02:06:16.768Z,100875.92
2023-05-13T02:08:29.276Z,100877.46
2023-05-13T02:10:41.838Z,100879.52
2023-05-13T02:12:54.418Z,100880.86
2023-05-13T02:15:07.406Z,100879.96
2023-05-13T02:17:19.986Z,100881.48
2023-05-13T02:19:32.579Z,100884.65
2023-05-13T02:21:45.675Z,100885.41
2023-05-13T02:23:58.330Z,100882.23
2023-05-13T02:26:10.931Z,100883.79
2023-05-13T02:28:23.455Z,100886.70
2023-05-13T02:30:36.518Z,100884.20
2023-05-13T02:32:49.064Z,100879.30
2023-05-13T02:35:01.749Z,100877.98
2023-05-13T02:37:14.271Z,100875.78
2023-05-13T02:39:27.009Z,100875.13
2023-05-13T02:41:39.663Z,100870.79
2023-05-13T02:43:52.466Z,100877.80
2023-05-13T02:46:05.123Z,100875.79
2023-05-13T02:48:17.860Z,100876.02
2023-05-13T02:50:30.462Z,100877.96
2023-05-13T02:52:43.040Z,100873.73
2023-05-13T02:54:55.770Z,100878.04
2023-05-13T02:57:08.316Z,100880.98
2023-05-13T02:59:20.891Z,100880.23
2023-05-13T03:01:33.569Z,100880.66
2023-05-13T03:03:46.281Z,100884.80
2023-05-13T03:05:58.902Z,100886.16
2023-05-13T03:08:11.737Z,100886.47
2023-05-13T03:10:24.340Z,100889.02
2023-05-13T03:12:37.034Z,100889.90
2023-05-13T03:14:49.603Z,100890.43
2023-05-13T03:17:03.156Z,100890.41
2023-05-13T03:19:15.762Z,100891.29
2023-05-13T03:21:28.421Z,100888.70
2023-05-13T03:23:41.038Z,100892.31
2023-05-13T03:25:53.774Z,100891.44
2023-05-13T03:28:07.067Z,100896.45
2023-05-13T03:30:19.762Z,100894.23
2023-05-13T03:32:32.648Z,100897.02
2023-05-13T03:34:45.308Z,100900.17
2023-05-13T03:36:57.846Z,100900.49
2023-05-13T03:39:10.487Z,100901.36
2023-05-13T03:41:23.163Z,100900.68
2023-05-13T03:43:35.891Z,100903.42
2023-05-13T03:45:48.579Z,100898.73
2023-05-13T03:48:01.238Z,100900.60
2023-05-13T03:50:13.886Z,100904.59
2023-05-13T03:52:26.466Z,100906.81
2023-05-13T03:54:39.392Z,100908.17
2023-05-13T03:56:52.001Z,100912.77
2023-05-13T03:59:04.544Z,100912.20
2023-05-13T04:01:17.088Z,100912.70
2023-05-13T04:03:29.689Z,100914.51
2023-05-13T04:05:42.554Z,100910.63
2023-05-13T04:07:55.197Z,100916.88
2023-05-13T04:10:08.996Z,100914.34
2023-05-13T04:12:21.500Z,100915.75
2023-05-13T04:14:34.379Z,100918.02
2023-05-13T04:16:47.168Z,100925.06
2023-05-13T04:18:59.895Z,100925.76
2023-05-13T04:21:12.564Z,100927.24
2023-05-13T04:23:25.157Z,100928.56
2023-05-13T04:25:37.866Z,100929.33
2023-05-13T04:27:50.502Z,100926.62
2023-05-13T04:30:03.351Z,100930.19
2023-05-13T04:32:21.349Z,100927.68
2023-05-13T04:34:33.966Z,100927.40
2023-05-13T04:36:48.659Z,100929.56
2023-05-13T04:39:01.399Z,100930.98
2023-05-13T04:41:14.075Z,100936.92
2023-05-13T04:43:27.010Z,100933.98
2023-05-13T04:45:39.979Z,100933.93
2023-05-13T04:47:52.602Z,100931.64
2023-05-13T04:50:05.682Z,100934.05
2023-05-13T04:52:19.515Z,100937.05
2023-05-13T04:54:32.132Z,100933.39
2023-05-13T04:56:44.736Z,100933.45
2023-05-13T04:58:57.341Z,100934.52
2023-05-13T05:01:09.967Z,100928.13
2023-05-13T05:03:22.681Z,100933.13
2023-05-13T05:05:35.371Z,100935.40
2023-05-13T05:07:47.888Z,100936.38
2023-05-13T05:10:00.806Z,100933.73
2023-05-13T05:12:13.735Z,100932.09
2023-05-13T05:14:26.414Z,100933.31
2023-05-13T05:16:39.209Z,100937.84
2023-05-13T05:18:51.840Z,100939.09
2023-05-13T05:21:04.535Z,100938.66
2023-05-13T05:23:17.121Z,100935.95
2023-05-13T05:25:29.945Z,100936.39
2023-05-13T05:27:42.539Z,100936.05
2023-05-13T05:29:55.152Z,100939.29
2023-05-13T05:32:07.986Z,100935.09
2023-05-13T05:34:20.590Z,100937.55
2023-05-13T05:36:33.210Z,100937.61
2023-05-13T05:38:47.225Z,100943.14
2023-05-13T05:41:00.799Z,100943.74
2023-05-13T05:43:13.605Z,100946.92
2023-05-13T05:45:26.188Z,100950.35
2023-05-13T05:47:38.947Z,100951.14
2023-05-13T05:49:51.621Z,100953.39
2023-05-13T05:52:05.213Z,100954.45
2023-05-13T05:54:17.766Z,100952.77
2023-05-13T05:56:30.295Z,100954.09
2023-05-13T05:58:42.853Z,100952.74
2023-05-13T06:00:56.989Z,100950.58
2023-05-13T06:03:09.933Z,100951.09
2023-05-13T06:05:23.161Z,100947.66
2023-05-13T06:07:35.948Z,100951.42
2023-05-13T06:09:48.498Z,100952.00
2023-05-13T06:12:01.064Z,100954.15
2023-05-13T06:14:13.613Z,100952.95
2023-05-13T06:16:26.288Z,100953.62
2023-05-13T06:18:38.998Z,100952.98
2023-05-13T06:20:51.591Z,100950.27
2023-05-13T06:23:04.134Z,100951.93
2023-05-13T06:25:16.660Z,100952.15
2023-05-13T06:27:29.212Z,100953.31
2023-05-13T06:29:41.752Z,100952.83
2023-05-13T06:31:54.318Z,100949.41
2023-05-13T06:34:07.262Z,100950.77
2023-05-13T06:36:20.089Z,100951.05
2023-05-13T06:38:34.489Z,100950.15
2023-05-13T06:40:47.070Z,100944.74
2023-05-13T06:42:59.661Z,100950.75
2023-05-13T06:45:12.153Z,100950.45
2023-05-13T06:47:24.788Z,100951.55
2023-05-13T06:49:37.358Z,100957.64
2023-05-13T06:51:50.010Z,100955.02
2023-05-13T06:54:02.604Z,100955.83
2023-05-13T06:56:15.230Z,100957.04
2023-05-13T06:58:28.290Z,100958.11
2023-05-13T07:00:41.134Z,100960.25
2023-05-13T07:02:53.698Z,100952.88
2023-05-13T07:05:06.924Z,100954.38
2023-05-13T07:07:20.090Z,100953.27
2023-05-13T07:09:34.431Z,100952.72
2023-05-13T07:11:47.345Z,100949.70
2023-05-13T07:13:59.914Z,100948.52
2023-05-13T07:16:14.169Z,100950.02
2023-05-13T07:18:26.867Z,100948.52
2023-05-13T07:20:39.464Z,100950.98
2023-05-13T07:22:52.048Z,100952.66
2023-05-13T07:25:05.027Z,100952.80
2023-05-13T07:27:17.581Z,100954.11
2023-05-13T07:29:32.031Z,100950.55
2023-05-13T07:31:44.571Z,100951.23
2023-05-13T07:33:57.571Z,100951.66
2023-05-13T07:36:10.164Z,100951.48
2023-05-13T07:38:23.097Z,100949.92
2023-05-13T07:40:35.781Z,100947.50
2023-05-13T07:42:48.694Z,100947.98
2023-05-13T07:45:01.298Z,100951.37
2023-05-13T07:47:14.162Z,100952.88
2023-05-13T07:49:26.733Z,100955.59
2023-05-13T07:51:39.406Z,100957.62
2023-05-13T07:53:52.760Z,100959.30
2023-05-13T07:56:05.549Z,100952.64
2023-05-13T07:58:18.675Z,100955.84
2023-05-13T08:00:31.203Z,100955.78
2023-05-13T08:02:43.901Z,100955.66
2023-05-13T08:04:56.609Z,100956.80
2023-05-13T08:07:11.213Z,100956.73
2023-05-13T08:09:24.388Z,100957.48
2023-05-13T08:11:36.955Z,100957.39
2023-05-13T08:13:49.544Z,100959.52
2023-05-13T08:16:03.502Z,100962.71
2023-05-13T08:18:16.194Z,100961.88
2023-05-13T08:20:30.090Z,100959.08
2023-05-13T08:22:43.731Z,100963.06
2023-05-13T08:24:56.491Z,100961.06
2023-05-13T08:27:09.078Z,100963.59
2023-05-13T08:29:21.717Z,100964.68
2023-05-13T08:31:34.371Z,100961.14
2023-05-13T08:33:48.561Z,100956.69
2023-05-13T08:36:01.638Z,100957.59
2023-05-13T08:38:14.486Z,100953.54
2023-05-13T08:40:27.175Z,100959.95
2023-05-13T08:42:40.944Z,100957.13
2023-05-13T08:44:53.639Z,100955.73
2023-05-13T08:47:37.113Z,100956.97
2023-05-13T08:49:50.608Z,100958.24
2023-05-13T08:52:03.283Z,100955.21
2023-05-13T08:54:17.745Z,100957.37
2023-05-13T08:56:30.753Z,100956.45
2023-05-13T08:58:43.637Z,100955.73
2023-05-13T09:00:57.120Z,100954.35
2023-05-13T09:03:10.261Z,100953.96
2023-05-13T09:05:25.111Z,100950.34
2023-05-13T09:07:39.575Z,100953.82
2023-05-13T09:09:52.712Z,100953.79
2023-05-13T09:12:05.989Z,100947.32
2023-05-13T09:14:19.542Z,100946.52
2023-05-13T09:16:32.760Z,100951.55
2023-05-13T09:18:46.802Z,100949.09
2023-05-13T09:21:26.012Z,100949.42
2023-05-13T09:23:39.418Z,100947.30
2023-05-13T09:25:51.967Z,100950.36
2023-05-13T09:28:07.214Z,100951.66
2023-05-13T09:30:20.866Z,100951.17
2023-05-13T09:32:33.484Z,100946.39
2023-05-13T09:34:48.356Z,100943.02
2023-05-13T09:37:06.667Z,100940.02
2023-05-13T09:39:19.303Z,100939.77
2023-05-13T09:41:32.422Z,100940.41
2023-05-13T09:43:45.025Z,100942.15
2023-05-13T09:46:01.856Z,100951.05
2023-05-13T09:48:14.604Z,100956.02
2023-05-13T09:50:27.505Z,100949.89
2023-05-13T09:52:40.116Z,100940.21
2023-05-13T09:54:52.769Z,100929.45
2023-05-13T09:57:06.328Z,100927.25
2023-05-13T09:59:18.827Z,100934.77
2023-05-13T10:01:31.524Z,100939.50
2023-05-13T10:03:44.540Z,100931.73
2023-05-13T10:06:00.504Z,100929.46
2023-05-13T10:08:15.578Z,100935.91
2023-05-13T10:10:31.006Z,100933.02
2023-05-13T10:12:44.014Z,100927.99
2023-05-13T10:14:57.022Z,100924.19
2023-05-13T10:17:10.127Z,100932.02
2023-05-13T10:19:24.514Z,100929.63
2023-05-13T10:21:37.471Z,100929.60
2023-05-13T10:23:53.056Z,100922.48
2023-05-13T10:26:06.589Z,100929.70
2023-05-13T10:28:20.067Z,100929.78
2023-05-13T10:30:35.779Z,100928.29
2023-05-13T10:32:48.996Z,100929.25
2023-05-13T10:35:10.672Z,100928.91
2023-05-13T10:37:50.236Z,100928.42
2023-05-13T10:40:18.759Z,100928.69
2023-05-13T10:42:43.622Z,100928.26
2023-05-13T10:44:57.901Z,100926.99
2023-05-13T10:47:11.277Z,100930.77
2023-05-13T10:49:26.256Z,100922.52
2023-05-13T10:51:45.231Z,100926.38
2023-05-13T10:53:58.938Z,100920.10
2023-05-13T10:56:12.018Z,100923.35
2023-05-13T10:58:56.722Z,100918.58
2023-05-13T11:01:27.012Z,100911.02
2023-05-13T11:03:41.009Z,100910.63
2023-05-13T11:06:20.643Z,100909.23
2023-05-13T11:08:37.559Z,100907.91
2023-05-13T11:10:54.978Z,100914.40
2023-05-13T11:13:16.662Z,100906.29
2023-05-13T11:15:49.876Z,100898.04
2023-05-13T11:18:02.843Z,100909.58
2023-05-13T11:20:18.138Z,100910.52
2023-05-13T11:22:30.738Z,100914.83
2023-05-13T11:25:07.488Z,100910.67
2023-05-13T11:27:21.031Z,100921.96
2023-05-13T11:29:34.854Z,100922.21
2023-05-13T11:31:49.692Z,100923.56
2023-05-13T11:34:10.425Z,100922.35
2023-05-13T11:36:29.740Z,100922.79
2023-05-13T11:38:42.426Z,100923.48
2023-05-13T11:40:56.366Z,100926.27
2023-05-13T11:43:09.759Z,100923.02
2023-05-13T11:45:24.660Z,100925.55
2023-05-13T11:47:37.459Z,100922.54
2023-05-13T11:49:51.422Z,100923.08
2023-05-13T11:52:06.454Z,100926.33
2023-05-13T11:54:19.042Z,100922.56
2023-05-13T11:56:31.774Z,100916.02
2023-05-13T11:58:44.758Z,100917.58
2023-05-13T12:00:57.396Z,100914.77
2023-05-13T12:03:12.362Z,100915.35
2023-05-13T12:05:26.336Z,100915.88
2023-05-13T12:07:42.515Z,100913.91
2023-05-13T12:09:57.642Z,100908.11
2023-05-13T12:12:10.425Z,100910.13
2023-05-13T12:14:26.378Z,100911.41
2023-05-13T12:16:42.043Z,100915.53
2023-05-13T12:19:07.609Z,100909.60
2023-05-13T12:21:21.142Z,100915.60
2023-05-13T12:23:40.842Z,100918.78
2023-05-13T12:25:54.791Z,100923.69
2023-05-13T12:28:13.533Z,100919.04
2023-05-13T12:30:26.296Z,100918.05
2023-05-13T12:32:47.046Z,100916.35
2023-05-13T12:34:59.981Z,100913.34
2023-05-13T12:37:14.163Z,100917.25
2023-05-13T12:39:27.001Z,100911.32
2023-05-13T12:41:51.994Z,100913.58
2023-05-13T12:44:14.388Z,100918.45
2023-05-13T12:46:27.845Z,100919.46
2023-05-13T12:48:40.518Z,100921.72
2023-05-13T12:50:53.244Z,100924.33
2023-05-13T12:53:06.118Z,100922.48
2023-05-13T12:55:19.113Z,100922.67
2023-05-13T12:57:32.424Z,100921.02
2023-05-13T12:59:48.147Z,100924.23
2023-05-13T13:02:00.694Z,100924.13
2023-05-13T13:04:13.382Z,100923.85
2023-05-13T13:06:26.065Z,100922.23
2023-05-13T13:08:39.255Z,100917.06
2023-05-13T13:10:52.008Z,100915.32
2023-05-13T13:13:04.782Z,100914.63
2023-05-13T13:15:17.699Z,100914.33
2023-05-13T13:17:30.466Z,100910.05
2023-05-13T13:19:43.326Z,100915.23
2023-05-13T13:21:55.987Z,100914.24
2023-05-13T13:24:08.804Z,100909.06
2023-05-13T13:26:23.037Z,100915.63
2023-05-13T13:28:35.777Z,100911.83
2023-05-13T13:30:48.554Z,100912.10
2023-05-13T13:33:01.488Z,100915.46
2023-05-13T13:35:14.281Z,100922.17
2023-05-13T13:37:26.955Z,100922.20
2023-05-13T13:39:39.976Z,100920.12
2023-05-13T13:41:52.787Z,100918.92
2023-05-13T13:44:05.574Z,100925.39
2023-05-13T13:46:18.336Z,100921.77
2023-05-13T13:48:31.082Z,100923.14
2023-05-13T13:50:45.965Z,100923.91
2023-05-13T13:53:00.164Z,100927.50
2023-05-13T13:55:14.584Z,100922.71
2023-05-13T13:57:27.533Z,100915.27
2023-05-13T13:59:40.501Z,100921.02
2023-05-13T14:01:53.963Z,100917.73
2023-05-13T14:04:11.929Z,100916.16
2023-05-13T14:06:24.721Z,100921.75
2023-05-13T14:08:37.523Z,100916.15
2023-05-13T14:10:50.608Z,100918.30
2023-05-13T14:13:03.825Z,100922.52
2023-05-13T14:15:16.868Z,100923.39
2023-05-13T14:17:29.906Z,100921.71
2023-05-13T14:19:42.685Z,100921.17
2023-05-13T14:21:55.626Z,100918.98
2023-05-13T14:24:08.658Z,100916.74
2023-05-13T14:26:21.942Z,100914.39
2023-05-13T14:28:35.049Z,100915.48
2023-05-13T14:30:47.873Z,100911.77
2023-05-13T14:33:00.780Z,100916.42
2023-05-13T14:35:14.564Z,100918.11
2023-05-13T14:37:27.373Z,100919.57
2023-05-13T14:39:40.181Z,100918.41
2023-05-13T14:41:53.020Z,100918.58
2023-05-13T14:44:05.941Z,100915.65
2023-05-13T14:46:18.646Z,100914.23
2023-05-13T14:48:31.315Z,100915.18
2023-05-13T14:50:45.128Z,100911.48
2023-05-13T14:52:58.113Z,100906.23
2023-05-13T14:55:11.950Z,100902.93
2023-05-13T14:57:24.736Z,100904.14
2023-05-13T14:59:37.666Z,100904.73
2023-05-13T15:01:50.371Z,100901.84
2023-05-13T15:04:02.957Z,100904.66
2023-05-13T15:06:15.733Z,100906.85
2023-05-13T15:08:28.614Z,100900.80
2023-05-13T15:10:41.247Z,100901.65
2023-05-13T15:12:54.262Z,100899.91
2023-05-13T15:15:07.328Z,100906.20
2023-05-13T15:17:20.626Z,100902.90
2023-05-13T15:19:33.190Z,100898.67
2023-05-13T15:21:45.748Z,100900.04
2023-05-13T15:23:58.278Z,100902.99
2023-05-13T15:26:10.791Z,100903.33
2023-05-13T15:28:23.404Z,100901.38
2023-05-13T15:30:36.444Z,100904.98
2023-05-13T15:32:49.092Z,100901.64
2023-05-13T15:35:01.856Z,100903.81
2023-05-13T15:37:14.389Z,100901.50
2023-05-13T15:39:27.001Z,100899.10
2023-05-13T15:41:39.611Z,100899.20
2023-05-13T15:43:52.127Z,100906.73
2023-05-13T15:46:04.924Z,100898.67
2023-05-13T15:48:17.770Z,100898.95
2023-05-13T15:50:30.432Z,100902.89
2023-05-13T15:52:42.988Z,100898.96
2023-05-13T15:54:55.679Z,100901.36
2023-05-13T15:57:09.019Z,100899.95
2023-05-13T15:59:21.757Z,100899.64
2023-05-13T16:01:34.332Z,100896.08
2023-05-13T16:03:46.950Z,100895.71
2023-05-13T16:05:59.533Z,100894.08
2023-05-13T16:08:12.096Z,100890.06
2023-05-13T16:10:24.969Z,100889.66
2023-05-13T16:12:37.657Z,100888.95
2023-05-13T16:14:50.773Z,100888.35
2023-05-13T16:17:03.383Z,100885.02
2023-05-13T16:19:15.954Z,100887.57
2023-05-13T16:21:28.504Z,100885.30
2023-05-13T16:23:41.172Z,100885.44
2023-05-13T16:25:53.728Z,100884.91
2023-05-13T16:28:06.294Z,100878.54
2023-05-13T16:30:18.806Z,100880.04
2023-05-13T16:32:31.419Z,100881.59
2023-05-13T16:34:44.110Z,100880.55
2023-05-13T16:36:58.951Z,100875.88
2023-05-13T16:39:11.748Z,100871.72
2023-05-13T16:41:24.263Z,100872.20
2023-05-13T16:43:36.820Z,100872.86
2023-05-13T16:45:49.377Z,100871.35
2023-05-13T16:48:01.973Z,100874.95
2023-05-13T16:50:14.585Z,100872.52
2023-05-13T16:52:27.271Z,100873.33
2023-05-13T16:54:39.919Z,100870.55
2023-05-13T16:56:52.471Z,100868.48
2023-05-13T16:59:04.996Z,100868.53
2023-05-13T17:01:17.624Z,100870.66
2023-05-13T17:03:30.280Z,100868.83
2023-05-13T17:05:42.898Z,100872.23
2023-05-13T17:07:55.402Z,100869.59
2023-05-13T17:10:08.326Z,100867.84
2023-05-13T17:12:20.892Z,100868.48
2023-05-13T17:14:33.449Z,100870.84
2023-05-13T17:16:46.060Z,100871.27
2023-05-13T17:18:59.604Z,100874.05
2023-05-13T17:21:12.178Z,100872.13
2023-05-13T17:23:24.684Z,100870.36
2023-05-13T17:25:37.332Z,100866.60
2023-05-13T17:27:49.924Z,100868.49
2023-05-13T17:30:02.579Z,100868.85
2023-05-13T17:32:15.176Z,100873.77
2023-05-13T17:34:27.720Z,100871.66
2023-05-13T17:36:40.235Z,100867.70
2023-05-13T17:38:52.830Z,100870.71
2023-05-13T17:41:05.634Z,100870.36
2023-05-13T17:43:18.324Z,100868.11
2023-05-13T17:45:30.991Z,100870.52
2023-05-13T17:47:43.660Z,100871.89
2023-05-13T17:49:56.243Z,100869.77
2023-05-13T17:52:09.583Z,100869.27
2023-05-13T17:54:22.189Z,100868.96
2023-05-13T17:56:34.788Z,100872.42
2023-05-13T17:58:47.386Z,100873.71
2023-05-13T18:01:01.226Z,100870.95
2023-05-13T18:03:13.753Z,100870.77
2023-05-13T18:05:26.489Z,100872.53
2023-05-13T18:07:39.008Z,100870.20
2023-05-13T18:09:51.586Z,100873.69
2023-05-13T18:12:04.500Z,100872.21
2023-05-13T18:14:17.055Z,100871.46
2023-05-13T18:16:29.724Z,100871.37
2023-05-13T18:18:42.375Z,100873.06
2023-05-13T18:20:55.054Z,100872.41
2023-05-13T18:23:07.601Z,100875.15
2023-05-13T18:25:20.185Z,100876.17
2023-05-13T18:27:32.740Z,100877.54
2023-05-13T18:29:45.241Z,100881.02
2023-05-13T18:31:58.206Z,100885.83
2023-05-13T18:34:10.769Z,100883.39
2023-05-13T18:36:23.335Z,100886.42
2023-05-13T18:38:35.881Z,100888.27
2023-05-13T18:40:48.439Z,100891.27
2023-05-13T18:43:01.294Z,100893.46
2023-05-13T18:45:13.837Z,100895.91
2023-05-13T18:47:26.526Z,100901.33
2023-05-13T18:49:39.085Z,100903.92
2023-05-13T18:51:51.590Z,100905.85
2023-05-13T18:54:04.835Z,100908.67
2023-05-13T18:56:17.462Z,100913.02
2023-05-13T18:58:29.999Z,100911.79
2023-05-13T19:00:42.572Z,100915.58
2023-05-13T19:02:55.165Z,100918.80
2023-05-13T19:05:08.370Z,100919.89
2023-05-13T19:07:20.919Z,100920.14
2023-05-13T19:09:35.875Z,100923.82
2023-05-13T19:11:48.389Z,100923.03
2023-05-13T19:14:00.950Z,100922.45
2023-05-13T19:16:13.547Z,100923.36
2023-05-13T19:18:27.102Z,100923.74
2023-05-13T19:20:39.639Z,100924.23
2023-05-13T19:22:52.376Z,100926.06
2023-05-13T19:25:05.361Z,100924.16
2023-05-13T19:27:18.080Z,100926.06
2023-05-13T19:29:30.654Z,100930.02
2023-05-13T19:31:43.225Z,100929.95
2023-05-13T19:33:56.111Z,100927.84
2023-05-13T19:36:09.082Z,100930.45
2023-05-13T19:38:22.138Z,100934.61
2023-05-13T19:40:34.646Z,100938.89
2023-05-13T19:42:47.221Z,100937.39
2023-05-13T19:44:59.732Z,100938.20
2023-05-13T19:47:12.278Z,100940.38
2023-05-13T19:49:25.349Z,100938.58
2023-05-13T19:51:37.964Z,100939.05
2023-05-13T19:53:51.238Z,100944.02
2023-05-13T19:56:04.006Z,100945.51
2023-05-13T19:58:16.641Z,100944.21
2023-05-13T20:00:29.700Z,100945.30
2023-05-13T20:02:42.329Z,100945.67
2023-05-13T20:04:56.308Z,100941.01
2023-05-13T20:07:09.478Z,100940.56
2023-05-13T20:09:22.273Z,100938.15
2023-05-13T20:11:34.869Z,100941.50
2023-05-13T20:13:47.476Z,100935.96
2023-05-13T20:16:00.215Z,100940.33
2023-05-13T20:18:12.813Z,100939.64
2023-05-13T20:20:25.589Z,100940.21
2023-05-13T20:22:38.271Z,100941.11
2023-05-13T20:24:51.308Z,100939.80
2023-05-13T20:27:04.048Z,100939.82
2023-05-13T20:29:25.576Z,100936.98
2023-05-13T20:31:42.284Z,100938.83
2023-05-13T20:33:54.908Z,100937.00
2023-05-13T20:36:07.573Z,100934.97
2023-05-13T20:38:21.111Z,100936.71
2023-05-13T20:40:33.641Z,100935.68
2023-05-13T20:42:47.775Z,100932.52
2023-05-13T20:45:00.445Z,100931.45
2023-05-13T20:47:13.787Z,100928.43
2023-05-13T20:49:26.804Z,100927.58
2023-05-13T20:51:40.140Z,100926.35
2023-05-13T20:53:52.715Z,100930.16
2023-05-13T20:56:08.238Z,100928.41
2023-05-13T20:58:20.757Z,100931.39
2023-05-13T21:00:33.286Z,100932.59
2023-05-13T21:02:46.051Z,100935.20
2023-05-13T21:04:58.726Z,100934.51
2023-05-13T21:07:11.615Z,100933.27
2023-05-13T21:09:24.187Z,100935.50
2023-05-13T21:11:36.746Z,100937.01
2023-05-13T21:13:49.376Z,100938.05
2023-05-13T21:16:05.195Z,100938.34
2023-05-13T21:18:17.934Z,100941.94
2023-05-13T21:20:32.596Z,100938.15
2023-05-13T21:22:45.235Z,100939.50
2023-05-13T21:24:58.183Z,100939.80
2023-05-13T21:27:10.803Z,100941.00
2023-05-13T21:29:23.440Z,100940.98
2023-05-13T21:31:36.052Z,100942.16
2023-05-13T21:33:48.945Z,100937.10
2023-05-13T21:36:01.635Z,100938.29
2023-05-13T21:38:14.211Z,100936.35
2023-05-13T21:40:26.821Z,100938.30
2023-05-13T21:42:39.336Z,100938.80
2023-05-13T21:44:51.904Z,100934.27
2023-05-13T21:47:04.675Z,100931.80
2023-05-13T21:49:17.191Z,100929.32
2023-05-13T21:51:29.743Z,100928.92
2023-05-13T21:53:43.238Z,100929.17
2023-05-13T21:55:56.649Z,100926.50
2023-05-13T21:58:09.162Z,100928.56
2023-05-13T22:00:22.056Z,100923.50
2023-05-13T22:02:34.880Z,100924.64
2023-05-13T22:04:47.641Z,100926.48
2023-05-13T22:07:01.828Z,100930.77
2023-05-13T22:09:14.480Z,100929.86
2023-05-13T22:11:27.704Z,100929.94
2023-05-13T22:13:40.987Z,100929.85
2023-05-13T22:15:53.704Z,100930.96
2023-05-13T22:18:06.766Z,100931.96
2023-05-13T22:20:19.533Z,100929.66
2023-05-13T22:22:32.440Z,100930.09
2023-05-13T22:24:45.038Z,100925.52
2023-05-13T22:26:58.636Z,100928.56
2023-05-13T22:29:11.171Z,100922.27
2023-05-13T22:31:24.034Z,100923.08
2023-05-13T22:33:36.787Z,100922.86
2023-05-13T22:35:49.334Z,100924.86
2023-05-13T22:38:04.774Z,100922.32
2023-05-13T22:40:17.386Z,100914.71
2023-05-13T22:42:29.931Z,100914.10
2023-05-13T22:44:42.458Z,100913.14
2023-05-13T22:46:55.131Z,100908.56
2023-05-13T22:49:08.062Z,100912.77
2023-05-13T22:51:20.603Z,100911.48
2023-05-13T22:53:33.151Z,100914.85
2023-05-13T22:55:45.857Z,100915.45
2023-05-13T22:57:58.395Z,100918.24
2023-05-13T23:00:11.773Z,100917.15
2023-05-13T23:02:24.675Z,100914.88
2023-05-13T23:04:37.273Z,100911.29
2023-05-13T23:06:49.810Z,100908.58
2023-05-13T23:09:02.703Z,100910.87
2023-05-13T23:11:15.272Z,100909.69
2023-05-13T23:13:27.796Z,100914.92
2023-05-13T23:15:40.419Z,100912.54
2023-05-13T23:17:53.031Z,100912.90
2023-05-13T23:20:06.368Z,100908.80
2023-05-13T23:22:18.946Z,100909.20
2023-05-13T23:24:31.667Z,100906.31
2023-05-13T23:26:46.446Z,100907.73
2023-05-13T23:28:59.891Z,100905.20
2023-05-13T23:31:12.515Z,100905.23
2023-05-13T23:33:25.071Z,100904.55
2023-05-13T23:35:37.656Z,100903.02
2023-05-13T23:37:50.241Z,100905.33
2023-05-13T23:40:03.032Z,100903.29
2023-05-13T23:42:16.596Z,100904.20
2023-05-13T23:44:29.140Z,100904.77
2023-05-13T23:46:42.260Z,100903.95
2023-05-13T23:48:54.989Z,100902.77
2023-05-13T23:51:07.611Z,100901.70
2023-05-13T23:53:20.359Z,100900.40
2023-05-13T23:55:33.172Z,100899.39
2023-05-13T23:57:46.984Z,100895.16
2023-05-13T23:59:59.631Z,100894.07
